sensor_id;sensor_type;location;lat;lon;timestamp;temperature;humidity
3406;DHT22;10008;48.682;9.016;2023-04-03T00:01:32;4.00;99.90
3406;DHT22;10008;48.682;9.016;2023-04-03T00:03:58;4.00;99.90
3406;DHT22;10008;48.682;9.016;2023-04-03T00:06:25;4.00;99.90
3406;DHT22;10008;48.682;9.016;2023-04-03T00:08:52;4.00;99.90
3406;DHT22;10008;48.682;9.016;2023-04-03T00:11:18;4.10;99.90
3406;DHT22;10008;48.682;9.016;2023-04-03T00:13:44;4.00;99.90
3406;DHT22;10008;48.682;9.016;2023-04-03T00:16:11;4.00;99.90
3406;DHT22;10008;48.682;9.016;2023-04-03T00:18:38;4.70;99.90
3406;DHT22;10008;48.682;9.016;2023-04-03T00:21:05;4.00;99.90
3406;DHT22;10008;48.682;9.016;2023-04-03T00:23:31;4.10;99.90
3406;DHT22;10008;48.682;9.016;2023-04-03T00:25:57;4.00;99.90
3406;DHT22;10008;48.682;9.016;2023-04-03T00:28:23;4.50;99.90
3406;DHT22;10008;48.682;9.016;2023-04-03T00:30:49;4.10;99.90
3406;DHT22;10008;48.682;9.016;2023-04-03T00:33:15;5.70;99.90
3406;DHT22;10008;48.682;9.016;2023-04-03T00:35:41;4.30;99.90
3406;DHT22;10008;48.682;9.016;2023-04-03T00:38:08;4.30;99.90
3406;DHT22;10008;48.682;9.016;2023-04-03T00:40:36;3.90;99.90
3406;DHT22;10008;48.682;9.016;2023-04-03T00:43:04;3.90;99.90
3406;DHT22;10008;48.682;9.016;2023-04-03T00:45:41;5.30;99.90
3406;DHT22;10008;48.682;9.016;2023-04-03T00:48:11;3.90;99.90
3406;DHT22;10008;48.682;9.016;2023-04-03T00:50:40;3.90;99.90
3406;DHT22;10008;48.682;9.016;2023-04-03T00:53:08;3.90;99.90
3406;DHT22;10008;48.682;9.016;2023-04-03T00:55:36;3.90;99.90
3406;DHT22;10008;48.682;9.016;2023-04-03T00:58:03;3.90;99.90
3406;DHT22;10008;48.682;9.016;2023-04-03T01:00:30;3.90;99.90
3406;DHT22;10008;48.682;9.016;2023-04-03T01:02:56;4.60;99.90
3406;DHT22;10008;48.682;9.016;2023-04-03T01:05:22;3.90;99.90
3406;DHT22;10008;48.682;9.016;2023-04-03T01:07:49;3.80;99.90
3406;DHT22;10008;48.682;9.016;2023-04-03T01:10:17;3.80;99.90
3406;DHT22;10008;48.682;9.016;2023-04-03T01:12:46;3.80;99.90
3406;DHT22;10008;48.682;9.016;2023-04-03T01:15:19;3.80;99.90
3406;DHT22;10008;48.682;9.016;2023-04-03T01:17:49;3.80;99.90
3406;DHT22;10008;48.682;9.016;2023-04-03T01:25:44;3.80;99.90
3406;DHT22;10008;48.682;9.016;2023-04-03T01:28:24;5.60;99.90
3406;DHT22;10008;48.682;9.016;2023-04-03T01:31:03;3.80;99.90
3406;DHT22;10008;48.682;9.016;2023-04-03T01:33:33;3.70;99.90
3406;DHT22;10008;48.682;9.016;2023-04-03T01:35:59;3.80;99.90
3406;DHT22;10008;48.682;9.016;2023-04-03T01:38:26;3.70;99.90
3406;DHT22;10008;48.682;9.016;2023-04-03T01:40:52;4.90;99.90
3406;DHT22;10008;48.682;9.016;2023-04-03T01:43:18;4.20;99.90
3406;DHT22;10008;48.682;9.016;2023-04-03T01:45:44;3.70;99.90
3406;DHT22;10008;48.682;9.016;2023-04-03T01:48:10;3.70;99.90
3406;DHT22;10008;48.682;9.016;2023-04-03T01:50:36;3.80;99.90
3406;DHT22;10008;48.682;9.016;2023-04-03T01:53:01;3.70;99.90
3406;DHT22;10008;48.682;9.016;2023-04-03T01:55:27;3.70;99.90
3406;DHT22;10008;48.682;9.016;2023-04-03T01:57:53;3.70;99.90
3406;DHT22;10008;48.682;9.016;2023-04-03T02:00:19;3.60;99.90
3406;DHT22;10008;48.682;9.016;2023-04-03T02:02:45;3.60;99.90
3406;DHT22;10008;48.682;9.016;2023-04-03T02:05:11;4.60;99.90
3406;DHT22;10008;48.682;9.016;2023-04-03T02:07:39;4.60;99.90
3406;DHT22;10008;48.682;9.016;2023-04-03T02:10:07;3.60;99.90
3406;DHT22;10008;48.682;9.016;2023-04-03T02:12:33;3.60;99.90
3406;DHT22;10008;48.682;9.016;2023-04-03T02:14:59;3.50;99.90
3406;DHT22;10008;48.682;9.016;2023-04-03T02:17:26;3.50;99.90
3406;DHT22;10008;48.682;9.016;2023-04-03T02:19:54;3.60;99.90
3406;DHT22;10008;48.682;9.016;2023-04-03T02:22:20;3.50;99.90
3406;DHT22;10008;48.682;9.016;2023-04-03T02:24:45;3.50;99.90
3406;DHT22;10008;48.682;9.016;2023-04-03T02:27:11;3.50;99.90
3406;DHT22;10008;48.682;9.016;2023-04-03T02:29:37;4.40;99.90
3406;DHT22;10008;48.682;9.016;2023-04-03T02:32:04;3.40;99.90
3406;DHT22;10008;48.682;9.016;2023-04-03T02:34:31;3.40;99.90
3406;DHT22;10008;48.682;9.016;2023-04-03T02:36:59;3.60;99.90
3406;DHT22;10008;48.682;9.016;2023-04-03T02:39:24;3.40;99.90
3406;DHT22;10008;48.682;9.016;2023-04-03T02:41:51;3.90;99.90
3406;DHT22;10008;48.682;9.016;2023-04-03T02:44:22;3.50;99.90
3406;DHT22;10008;48.682;9.016;2023-04-03T02:46:49;4.00;99.90
3406;DHT22;10008;48.682;9.016;2023-04-03T02:49:16;4.90;99.90
3406;DHT22;10008;48.682;9.016;2023-04-03T02:51:42;4.80;99.90
3406;DHT22;10008;48.682;9.016;2023-04-03T02:54:08;3.90;99.90
3406;DHT22;10008;48.682;9.016;2023-04-03T02:56:37;3.30;99.90
3406;DHT22;10008;48.682;9.016;2023-04-03T02:59:02;3.30;99.90
3406;DHT22;10008;48.682;9.016;2023-04-03T03:01:29;3.30;99.90
3406;DHT22;10008;48.682;9.016;2023-04-03T03:03:58;3.30;99.90
3406;DHT22;10008;48.682;9.016;2023-04-03T03:06:23;3.40;99.90
3406;DHT22;10008;48.682;9.016;2023-04-03T03:08:50;4.20;99.90
3406;DHT22;10008;48.682;9.016;2023-04-03T03:11:16;3.50;99.90
3406;DHT22;10008;48.682;9.016;2023-04-03T03:13:41;3.30;99.90
3406;DHT22;10008;48.682;9.016;2023-04-03T03:16:07;3.30;99.90
3406;DHT22;10008;48.682;9.016;2023-04-03T03:18:34;3.60;99.90
3406;DHT22;10008;48.682;9.016;2023-04-03T03:21:01;3.30;99.90
3406;DHT22;10008;48.682;9.016;2023-04-03T03:23:28;3.20;99.90
3406;DHT22;10008;48.682;9.016;2023-04-03T03:26:02;3.60;99.90
3406;DHT22;10008;48.682;9.016;2023-04-03T03:28:28;3.20;99.90
3406;DHT22;10008;48.682;9.016;2023-04-03T03:30:54;3.30;99.90
3406;DHT22;10008;48.682;9.016;2023-04-03T03:33:21;3.30;99.90
3406;DHT22;10008;48.682;9.016;2023-04-03T03:35:47;3.30;99.90
3406;DHT22;10008;48.682;9.016;2023-04-03T03:38:13;4.30;99.90
3406;DHT22;10008;48.682;9.016;2023-04-03T03:40:39;3.40;99.90
3406;DHT22;10008;48.682;9.016;2023-04-03T03:43:05;3.40;99.90
3406;DHT22;10008;48.682;9.016;2023-04-03T03:45:31;3.50;99.90
3406;DHT22;10008;48.682;9.016;2023-04-03T03:47:57;4.20;99.90
3406;DHT22;10008;48.682;9.016;2023-04-03T03:50:23;3.40;99.90
3406;DHT22;10008;48.682;9.016;2023-04-03T03:52:49;3.40;99.90
3406;DHT22;10008;48.682;9.016;2023-04-03T03:55:16;3.40;99.90
3406;DHT22;10008;48.682;9.016;2023-04-03T03:57:49;3.50;99.90
3406;DHT22;10008;48.682;9.016;2023-04-03T04:00:15;3.50;99.90
3406;DHT22;10008;48.682;9.016;2023-04-03T04:02:44;3.50;99.90
3406;DHT22;10008;48.682;9.016;2023-04-03T04:05:13;3.60;99.90
3406;DHT22;10008;48.682;9.016;2023-04-03T04:07:39;3.60;99.90
3406;DHT22;10008;48.682;9.016;2023-04-03T04:10:05;3.60;99.90
3406;DHT22;10008;48.682;9.016;2023-04-03T04:12:31;3.60;99.90
3406;DHT22;10008;48.682;9.016;2023-04-03T04:14:57;3.70;99.90
3406;DHT22;10008;48.682;9.016;2023-04-03T04:17:23;3.70;99.90
3406;DHT22;10008;48.682;9.016;2023-04-03T04:19:49;3.60;99.90
3406;DHT22;10008;48.682;9.016;2023-04-03T04:22:15;3.60;99.90
3406;DHT22;10008;48.682;9.016;2023-04-03T04:24:41;3.50;99.90
3406;DHT22;10008;48.682;9.016;2023-04-03T04:27:08;4.20;99.90
3406;DHT22;10008;48.682;9.016;2023-04-03T04:29:34;4.50;99.90
3406;DHT22;10008;48.682;9.016;2023-04-03T04:32:03;3.60;99.90
3406;DHT22;10008;48.682;9.016;2023-04-03T04:34:30;3.60;99.90
3406;DHT22;10008;48.682;9.016;2023-04-03T04:36:56;3.60;99.90
3406;DHT22;10008;48.682;9.016;2023-04-03T04:39:22;3.60;99.90
3406;DHT22;10008;48.682;9.016;2023-04-03T04:41:48;3.60;99.90
3406;DHT22;10008;48.682;9.016;2023-04-03T04:44:14;4.30;99.90
3406;DHT22;10008;48.682;9.016;2023-04-03T04:46:40;4.10;99.90
3406;DHT22;10008;48.682;9.016;2023-04-03T04:49:06;3.60;99.90
3406;DHT22;10008;48.682;9.016;2023-04-03T04:51:33;3.60;99.90
3406;DHT22;10008;48.682;9.016;2023-04-03T04:53:59;3.60;99.90
3406;DHT22;10008;48.682;9.016;2023-04-03T04:56:25;3.60;99.90
3406;DHT22;10008;48.682;9.016;2023-04-03T04:58:53;4.50;99.90
3406;DHT22;10008;48.682;9.016;2023-04-03T05:01:20;3.70;99.90
3406;DHT22;10008;48.682;9.016;2023-04-03T05:03:58;3.90;99.90
3406;DHT22;10008;48.682;9.016;2023-04-03T05:06:25;4.10;99.90
3406;DHT22;10008;48.682;9.016;2023-04-03T05:08:51;3.70;99.90
3406;DHT22;10008;48.682;9.016;2023-04-03T05:11:18;3.80;99.90
3406;DHT22;10008;48.682;9.016;2023-04-03T05:13:45;4.20;99.90
3406;DHT22;10008;48.682;9.016;2023-04-03T05:16:11;3.80;99.90
3406;DHT22;10008;48.682;9.016;2023-04-03T05:18:38;3.70;99.90
3406;DHT22;10008;48.682;9.016;2023-04-03T05:21:08;3.70;99.90
3406;DHT22;10008;48.682;9.016;2023-04-03T05:23:34;3.70;99.90
3406;DHT22;10008;48.682;9.016;2023-04-03T05:26:02;5.10;99.90
3406;DHT22;10008;48.682;9.016;2023-04-03T05:28:29;3.80;99.90
3406;DHT22;10008;48.682;9.016;2023-04-03T05:30:57;3.80;99.90
3406;DHT22;10008;48.682;9.016;2023-04-03T05:33:26;4.00;99.90
3406;DHT22;10008;48.682;9.016;2023-04-03T05:35:54;5.10;99.90
3406;DHT22;10008;48.682;9.016;2023-04-03T05:38:25;3.90;99.90
3406;DHT22;10008;48.682;9.016;2023-04-03T05:40:52;3.90;99.90
3406;DHT22;10008;48.682;9.016;2023-04-03T05:43:18;3.90;99.90
3406;DHT22;10008;48.682;9.016;2023-04-03T05:45:44;4.00;99.90
3406;DHT22;10008;48.682;9.016;2023-04-03T05:48:09;4.20;99.90
3406;DHT22;10008;48.682;9.016;2023-04-03T05:50:36;4.30;99.90
3406;DHT22;10008;48.682;9.016;2023-04-03T05:53:09;4.40;99.90
3406;DHT22;10008;48.682;9.016;2023-04-03T05:55:39;4.40;99.90
3406;DHT22;10008;48.682;9.016;2023-04-03T05:58:05;4.50;99.90
3406;DHT22;10008;48.682;9.016;2023-04-03T06:00:31;4.60;99.90
3406;DHT22;10008;48.682;9.016;2023-04-03T06:03:00;4.70;99.90
3406;DHT22;10008;48.682;9.016;2023-04-03T06:05:27;4.80;99.90
3406;DHT22;10008;48.682;9.016;2023-04-03T06:07:53;5.20;99.90
3406;DHT22;10008;48.682;9.016;2023-04-03T06:10:19;4.90;99.90
3406;DHT22;10008;48.682;9.016;2023-04-03T06:12:45;4.90;99.90
3406;DHT22;10008;48.682;9.016;2023-04-03T06:15:11;4.80;99.90
3406;DHT22;10008;48.682;9.016;2023-04-03T06:17:39;5.00;99.90
3406;DHT22;10008;48.682;9.016;2023-04-03T06:20:06;5.10;99.90
3406;DHT22;10008;48.682;9.016;2023-04-03T06:22:33;5.00;99.90
3406;DHT22;10008;48.682;9.016;2023-04-03T06:25:00;5.00;99.90
3406;DHT22;10008;48.682;9.016;2023-04-03T06:27:26;6.20;99.90
3406;DHT22;10008;48.682;9.016;2023-04-03T06:29:52;4.70;99.90
3406;DHT22;10008;48.682;9.016;2023-04-03T06:32:18;5.30;99.90
3406;DHT22;10008;48.682;9.016;2023-04-03T06:34:43;5.70;99.90
3406;DHT22;10008;48.682;9.016;2023-04-03T06:37:21;4.80;99.90
3406;DHT22;10008;48.682;9.016;2023-04-03T06:39:47;4.80;99.90
3406;DHT22;10008;48.682;9.016;2023-04-03T06:42:13;4.80;99.90
3406;DHT22;10008;48.682;9.016;2023-04-03T06:44:48;6.10;99.90
3406;DHT22;10008;48.682;9.016;2023-04-03T06:47:15;5.10;99.90
3406;DHT22;10008;48.682;9.016;2023-04-03T06:49:42;5.20;99.90
3406;DHT22;10008;48.682;9.016;2023-04-03T06:52:08;5.30;99.90
3406;DHT22;10008;48.682;9.016;2023-04-03T06:54:35;5.30;99.90
3406;DHT22;10008;48.682;9.016;2023-04-03T06:57:00;5.30;99.90
3406;DHT22;10008;48.682;9.016;2023-04-03T06:59:26;5.50;99.90
3406;DHT22;10008;48.682;9.016;2023-04-03T07:01:52;5.60;99.90
3406;DHT22;10008;48.682;9.016;2023-04-03T07:04:18;5.70;99.90
3406;DHT22;10008;48.682;9.016;2023-04-03T07:06:46;5.80;99.90
3406;DHT22;10008;48.682;9.016;2023-04-03T07:09:13;5.80;99.90
3406;DHT22;10008;48.682;9.016;2023-04-03T07:11:39;6.00;99.90
3406;DHT22;10008;48.682;9.016;2023-04-03T07:14:05;5.90;99.90
3406;DHT22;10008;48.682;9.016;2023-04-03T07:16:33;6.20;99.90
3406;DHT22;10008;48.682;9.016;2023-04-03T07:19:00;6.20;99.90
3406;DHT22;10008;48.682;9.016;2023-04-03T07:21:27;6.40;99.90
3406;DHT22;10008;48.682;9.016;2023-04-03T07:23:53;6.20;99.90
3406;DHT22;10008;48.682;9.016;2023-04-03T07:26:20;6.10;99.50
3406;DHT22;10008;48.682;9.016;2023-04-03T07:28:49;6.10;99.90
3406;DHT22;10008;48.682;9.016;2023-04-03T07:31:15;6.10;99.90
3406;DHT22;10008;48.682;9.016;2023-04-03T07:33:43;6.10;99.60
3406;DHT22;10008;48.682;9.016;2023-04-03T07:36:10;6.30;99.90
3406;DHT22;10008;48.682;9.016;2023-04-03T07:38:37;6.50;99.90
3406;DHT22;10008;48.682;9.016;2023-04-03T07:41:03;6.50;99.70
3406;DHT22;10008;48.682;9.016;2023-04-03T07:43:29;6.70;99.90
3406;DHT22;10008;48.682;9.016;2023-04-03T07:45:55;6.50;98.80
3406;DHT22;10008;48.682;9.016;2023-04-03T07:48:24;6.60;99.20
3406;DHT22;10008;48.682;9.016;2023-04-03T07:50:50;6.60;99.00
3406;DHT22;10008;48.682;9.016;2023-04-03T07:53:17;6.50;99.50
3406;DHT22;10008;48.682;9.016;2023-04-03T07:55:46;6.70;99.40
3406;DHT22;10008;48.682;9.016;2023-04-03T07:58:15;6.50;99.90
3406;DHT22;10008;48.682;9.016;2023-04-03T08:00:41;6.50;99.90
3406;DHT22;10008;48.682;9.016;2023-04-03T08:03:10;6.70;99.10
3406;DHT22;10008;48.682;9.016;2023-04-03T08:05:41;7.00;99.30
3406;DHT22;10008;48.682;9.016;2023-04-03T08:08:08;7.00;98.60
3406;DHT22;10008;48.682;9.016;2023-04-03T08:10:34;7.30;98.50
3406;DHT22;10008;48.682;9.016;2023-04-03T08:13:01;7.40;98.00
3406;DHT22;10008;48.682;9.016;2023-04-03T08:15:27;7.40;97.60
3406;DHT22;10008;48.682;9.016;2023-04-03T08:17:53;7.40;97.70
3406;DHT22;10008;48.682;9.016;2023-04-03T08:20:19;7.60;97.80
3406;DHT22;10008;48.682;9.016;2023-04-03T08:22:45;7.70;97.20
3406;DHT22;10008;48.682;9.016;2023-04-03T08:25:11;7.80;97.00
3406;DHT22;10008;48.682;9.016;2023-04-03T08:27:37;8.00;98.80
3406;DHT22;10008;48.682;9.016;2023-04-03T08:30:04;8.20;96.50
3406;DHT22;10008;48.682;9.016;2023-04-03T08:32:30;8.20;97.60
3406;DHT22;10008;48.682;9.016;2023-04-03T08:34:55;8.20;96.90
3406;DHT22;10008;48.682;9.016;2023-04-03T08:37:22;8.20;97.10
3406;DHT22;10008;48.682;9.016;2023-04-03T08:39:47;8.20;97.20
3406;DHT22;10008;48.682;9.016;2023-04-03T08:42:36;8.40;97.30
3406;DHT22;10008;48.682;9.016;2023-04-03T08:45:12;8.40;96.70
3406;DHT22;10008;48.682;9.016;2023-04-03T08:47:45;8.40;96.90
3406;DHT22;10008;48.682;9.016;2023-04-03T08:50:16;8.70;98.10
3406;DHT22;10008;48.682;9.016;2023-04-03T08:52:52;8.80;96.20
3406;DHT22;10008;48.682;9.016;2023-04-03T08:55:34;8.90;96.10
3406;DHT22;10008;48.682;9.016;2023-04-03T08:58:03;8.90;95.70
3406;DHT22;10008;48.682;9.016;2023-04-03T09:00:49;8.60;95.90
3406;DHT22;10008;48.682;9.016;2023-04-03T09:03:18;8.40;96.20
3406;DHT22;10008;48.682;9.016;2023-04-03T09:08:28;9.20;95.90
3406;DHT22;10008;48.682;9.016;2023-04-03T09:13:39;8.60;95.20
3406;DHT22;10008;48.682;9.016;2023-04-03T09:16:28;8.10;95.60
3406;DHT22;10008;48.682;9.016;2023-04-03T09:21:48;8.40;96.70
3406;DHT22;10008;48.682;9.016;2023-04-03T09:24:16;8.30;96.60
3406;DHT22;10008;48.682;9.016;2023-04-03T09:26:51;8.00;96.70
3406;DHT22;10008;48.682;9.016;2023-04-03T09:29:20;8.00;97.50
3406;DHT22;10008;48.682;9.016;2023-04-03T09:31:49;7.90;96.40
3406;DHT22;10008;48.682;9.016;2023-04-03T09:34:28;7.80;96.50
3406;DHT22;10008;48.682;9.016;2023-04-03T09:36:57;7.40;97.30
3406;DHT22;10008;48.682;9.016;2023-04-03T09:39:28;7.40;97.20
3406;DHT22;10008;48.682;9.016;2023-04-03T09:42:11;7.20;96.80
3406;DHT22;10008;48.682;9.016;2023-04-03T09:44:40;7.10;97.50
3406;DHT22;10008;48.682;9.016;2023-04-03T09:47:19;7.00;97.20
3406;DHT22;10008;48.682;9.016;2023-04-03T09:49:48;6.90;97.40
3406;DHT22;10008;48.682;9.016;2023-04-03T09:52:24;6.60;97.00
3406;DHT22;10008;48.682;9.016;2023-04-03T09:54:50;6.50;97.30
3406;DHT22;10008;48.682;9.016;2023-04-03T09:57:15;6.40;97.70
3406;DHT22;10008;48.682;9.016;2023-04-03T09:59:59;6.40;98.20
3406;DHT22;10008;48.682;9.016;2023-04-03T10:02:54;6.40;97.90
3406;DHT22;10008;48.682;9.016;2023-04-03T10:05:41;6.60;97.80
3406;DHT22;10008;48.682;9.016;2023-04-03T10:10:39;6.70;97.50
3406;DHT22;10008;48.682;9.016;2023-04-03T10:13:09;6.90;97.10
3406;DHT22;10008;48.682;9.016;2023-04-03T10:15:42;7.10;96.70
3406;DHT22;10008;48.682;9.016;2023-04-03T10:21:02;7.70;95.80
3406;DHT22;10008;48.682;9.016;2023-04-03T10:23:40;8.00;95.20
3406;DHT22;10008;48.682;9.016;2023-04-03T10:26:13;8.30;95.40
3406;DHT22;10008;48.682;9.016;2023-04-03T10:28:48;8.50;95.00
3406;DHT22;10008;48.682;9.016;2023-04-03T10:31:48;8.50;94.50
3406;DHT22;10008;48.682;9.016;2023-04-03T10:34:33;8.60;94.00
3406;DHT22;10008;48.682;9.016;2023-04-03T10:37:29;9.00;93.30
3406;DHT22;10008;48.682;9.016;2023-04-03T10:46:00;8.50;93.90
3406;DHT22;10008;48.682;9.016;2023-04-03T10:48:41;8.20;94.30
3406;DHT22;10008;48.682;9.016;2023-04-03T10:58:58;8.30;94.10
3406;DHT22;10008;48.682;9.016;2023-04-03T11:01:36;8.40;93.90
3406;DHT22;10008;48.682;9.016;2023-04-03T11:04:06;8.40;93.90
3406;DHT22;10008;48.682;9.016;2023-04-03T11:06:41;8.40;92.70
3406;DHT22;10008;48.682;9.016;2023-04-03T11:11:44;8.10;93.70
3406;DHT22;10008;48.682;9.016;2023-04-03T11:14:23;7.70;94.40
3406;DHT22;10008;48.682;9.016;2023-04-03T11:20:01;7.70;94.70
3406;DHT22;10008;48.682;9.016;2023-04-03T11:27:36;7.70;94.80
3406;DHT22;10008;48.682;9.016;2023-04-03T11:30:06;7.70;94.70
3406;DHT22;10008;48.682;9.016;2023-04-03T11:35:25;7.60;94.50
3406;DHT22;10008;48.682;9.016;2023-04-03T11:37:53;7.30;94.30
3406;DHT22;10008;48.682;9.016;2023-04-03T11:40:28;7.30;94.80
3406;DHT22;10008;48.682;9.016;2023-04-03T11:47:54;7.20;95.10
3406;DHT22;10008;48.682;9.016;2023-04-03T12:05:49;7.10;94.00
3406;DHT22;10008;48.682;9.016;2023-04-03T12:08:29;7.00;93.70
3406;DHT22;10008;48.682;9.016;2023-04-03T12:16:19;7.00;93.30
3406;DHT22;10008;48.682;9.016;2023-04-03T12:18:58;7.10;93.90
3406;DHT22;10008;48.682;9.016;2023-04-03T12:26:27;7.40;93.00
3406;DHT22;10008;48.682;9.016;2023-04-03T12:28:53;7.50;93.00
3406;DHT22;10008;48.682;9.016;2023-04-03T12:31:24;7.60;92.60
3406;DHT22;10008;48.682;9.016;2023-04-03T12:34:30;7.50;92.20
3406;DHT22;10008;48.682;9.016;2023-04-03T12:42:21;7.00;92.90
3406;DHT22;10008;48.682;9.016;2023-04-03T12:45:03;7.00;93.10
3406;DHT22;10008;48.682;9.016;2023-04-03T12:47:36;6.90;92.80
3406;DHT22;10008;48.682;9.016;2023-04-03T12:53:32;6.90;92.90
3406;DHT22;10008;48.682;9.016;2023-04-03T12:55:38;6.80;92.90
3406;DHT22;10008;48.682;9.016;2023-04-03T12:58:27;6.90;93.30
3406;DHT22;10008;48.682;9.016;2023-04-03T13:01:14;7.00;92.90
3406;DHT22;10008;48.682;9.016;2023-04-03T13:03:48;7.20;93.20
3406;DHT22;10008;48.682;9.016;2023-04-03T13:06:23;6.70;92.60
3406;DHT22;10008;48.682;9.016;2023-04-03T13:08:55;7.50;92.60
3406;DHT22;10008;48.682;9.016;2023-04-03T13:11:27;7.80;92.50
3406;DHT22;10008;48.682;9.016;2023-04-03T13:14:02;8.20;91.80
3406;DHT22;10008;48.682;9.016;2023-04-03T13:16:31;8.40;90.80
3406;DHT22;10008;48.682;9.016;2023-04-03T13:19:03;8.60;90.80
3406;DHT22;10008;48.682;9.016;2023-04-03T13:21:31;8.80;91.10
3406;DHT22;10008;48.682;9.016;2023-04-03T13:24:01;8.80;90.80
3406;DHT22;10008;48.682;9.016;2023-04-03T13:26:31;8.40;88.90
3406;DHT22;10008;48.682;9.016;2023-04-03T13:29:05;8.30;88.50
3406;DHT22;10008;48.682;9.016;2023-04-03T13:31:35;8.40;88.70
3406;DHT22;10008;48.682;9.016;2023-04-03T13:34:17;8.70;88.30
3406;DHT22;10008;48.682;9.016;2023-04-03T13:37:02;8.90;89.00
3406;DHT22;10008;48.682;9.016;2023-04-03T13:39:36;8.90;87.70
3406;DHT22;10008;48.682;9.016;2023-04-03T13:42:22;9.00;84.40
3406;DHT22;10008;48.682;9.016;2023-04-03T13:44:48;9.20;83.90
3406;DHT22;10008;48.682;9.016;2023-04-03T13:47:18;9.00;83.70
3406;DHT22;10008;48.682;9.016;2023-04-03T13:50:31;9.00;83.50
3406;DHT22;10008;48.682;9.016;2023-04-03T13:52:39;9.20;85.30
3406;DHT22;10008;48.682;9.016;2023-04-03T13:55:35;9.40;83.60
3406;DHT22;10008;48.682;9.016;2023-04-03T13:58:22;9.60;82.00
3406;DHT22;10008;48.682;9.016;2023-04-03T14:03:25;9.20;82.30
3406;DHT22;10008;48.682;9.016;2023-04-03T14:05:52;8.90;84.00
3406;DHT22;10008;48.682;9.016;2023-04-03T14:08:19;8.60;84.10
3406;DHT22;10008;48.682;9.016;2023-04-03T14:10:48;8.40;85.60
3406;DHT22;10008;48.682;9.016;2023-04-03T14:13:17;8.10;86.80
3406;DHT22;10008;48.682;9.016;2023-04-03T14:15:44;8.10;85.50
3406;DHT22;10008;48.682;9.016;2023-04-03T14:18:15;8.10;83.90
3406;DHT22;10008;48.682;9.016;2023-04-03T14:20:42;8.10;84.10
3406;DHT22;10008;48.682;9.016;2023-04-03T14:23:08;8.00;85.10
3406;DHT22;10008;48.682;9.016;2023-04-03T14:25:34;8.00;86.30
3406;DHT22;10008;48.682;9.016;2023-04-03T14:28:00;8.10;85.80
3406;DHT22;10008;48.682;9.016;2023-04-03T14:30:31;8.30;85.60
3406;DHT22;10008;48.682;9.016;2023-04-03T14:33:00;8.50;87.10
3406;DHT22;10008;48.682;9.016;2023-04-03T14:35:27;8.50;84.10
3406;DHT22;10008;48.682;9.016;2023-04-03T14:37:54;8.50;85.60
3406;DHT22;10008;48.682;9.016;2023-04-03T14:40:25;8.30;84.50
3406;DHT22;10008;48.682;9.016;2023-04-03T14:42:52;8.00;84.20
3406;DHT22;10008;48.682;9.016;2023-04-03T14:45:21;8.00;85.00
3406;DHT22;10008;48.682;9.016;2023-04-03T14:47:50;7.80;84.70
3406;DHT22;10008;48.682;9.016;2023-04-03T14:50:24;7.80;84.80
3406;DHT22;10008;48.682;9.016;2023-04-03T14:52:54;7.70;88.60
3406;DHT22;10008;48.682;9.016;2023-04-03T14:55:22;7.60;88.40
3406;DHT22;10008;48.682;9.016;2023-04-03T14:57:49;7.40;87.40
3406;DHT22;10008;48.682;9.016;2023-04-03T15:00:17;7.40;89.00
3406;DHT22;10008;48.682;9.016;2023-04-03T15:02:43;7.40;87.80
3406;DHT22;10008;48.682;9.016;2023-04-03T15:05:10;7.30;87.70
3406;DHT22;10008;48.682;9.016;2023-04-03T15:07:52;7.30;89.10
3406;DHT22;10008;48.682;9.016;2023-04-03T15:10:25;7.30;88.40
3406;DHT22;10008;48.682;9.016;2023-04-03T15:12:51;7.20;87.80
3406;DHT22;10008;48.682;9.016;2023-04-03T15:15:18;7.10;86.50
3406;DHT22;10008;48.682;9.016;2023-04-03T15:17:46;7.20;88.40
3406;DHT22;10008;48.682;9.016;2023-04-03T15:20:18;8.10;87.90
3406;DHT22;10008;48.682;9.016;2023-04-03T15:22:45;8.80;87.60
3406;DHT22;10008;48.682;9.016;2023-04-03T15:25:10;9.30;83.40
3406;DHT22;10008;48.682;9.016;2023-04-03T15:27:37;9.60;83.00
3406;DHT22;10008;48.682;9.016;2023-04-03T15:30:04;9.90;80.80
3406;DHT22;10008;48.682;9.016;2023-04-03T15:32:31;9.70;78.20
3406;DHT22;10008;48.682;9.016;2023-04-03T15:34:56;9.20;78.60
3406;DHT22;10008;48.682;9.016;2023-04-03T15:37:22;8.90;78.70
3406;DHT22;10008;48.682;9.016;2023-04-03T15:39:48;8.70;79.60
3406;DHT22;10008;48.682;9.016;2023-04-03T15:42:14;8.60;80.20
3406;DHT22;10008;48.682;9.016;2023-04-03T15:44:40;8.50;81.20
3406;DHT22;10008;48.682;9.016;2023-04-03T15:47:06;8.40;81.60
3406;DHT22;10008;48.682;9.016;2023-04-03T15:49:35;8.20;81.50
3406;DHT22;10008;48.682;9.016;2023-04-03T15:52:02;8.00;81.90
3406;DHT22;10008;48.682;9.016;2023-04-03T15:54:28;7.90;81.90
3406;DHT22;10008;48.682;9.016;2023-04-03T15:56:55;7.90;82.50
3406;DHT22;10008;48.682;9.016;2023-04-03T15:59:21;7.70;82.80
3406;DHT22;10008;48.682;9.016;2023-04-03T16:01:48;7.70;83.60
3406;DHT22;10008;48.682;9.016;2023-04-03T16:04:15;7.70;82.10
3406;DHT22;10008;48.682;9.016;2023-04-03T16:06:42;7.70;81.60
3406;DHT22;10008;48.682;9.016;2023-04-03T16:09:08;7.80;81.90
3406;DHT22;10008;48.682;9.016;2023-04-03T16:11:34;7.70;81.40
3406;DHT22;10008;48.682;9.016;2023-04-03T16:14:01;7.70;81.80
3406;DHT22;10008;48.682;9.016;2023-04-03T16:16:27;7.90;82.50
3406;DHT22;10008;48.682;9.016;2023-04-03T16:18:56;7.70;81.00
3406;DHT22;10008;48.682;9.016;2023-04-03T16:21:22;7.60;81.90
3406;DHT22;10008;48.682;9.016;2023-04-03T16:23:48;7.50;81.70
3406;DHT22;10008;48.682;9.016;2023-04-03T16:26:15;7.40;81.10
3406;DHT22;10008;48.682;9.016;2023-04-03T16:28:40;7.20;81.20
3406;DHT22;10008;48.682;9.016;2023-04-03T16:31:07;7.10;82.00
3406;DHT22;10008;48.682;9.016;2023-04-03T16:33:33;7.00;83.40
3406;DHT22;10008;48.682;9.016;2023-04-03T16:36:00;6.90;82.90
3406;DHT22;10008;48.682;9.016;2023-04-03T16:38:25;6.90;83.20
3406;DHT22;10008;48.682;9.016;2023-04-03T16:40:51;6.90;83.80
3406;DHT22;10008;48.682;9.016;2023-04-03T16:43:21;7.00;84.10
3406;DHT22;10008;48.682;9.016;2023-04-03T16:45:47;7.00;82.90
3406;DHT22;10008;48.682;9.016;2023-04-03T16:48:13;7.10;83.30
3406;DHT22;10008;48.682;9.016;2023-04-03T16:50:39;7.00;81.90
3406;DHT22;10008;48.682;9.016;2023-04-03T16:53:05;6.90;82.60
3406;DHT22;10008;48.682;9.016;2023-04-03T16:55:33;6.90;83.60
3406;DHT22;10008;48.682;9.016;2023-04-03T16:57:59;6.90;83.30
3406;DHT22;10008;48.682;9.016;2023-04-03T17:00:25;6.90;81.80
3406;DHT22;10008;48.682;9.016;2023-04-03T17:02:50;6.80;81.10
3406;DHT22;10008;48.682;9.016;2023-04-03T17:05:16;6.70;81.50
3406;DHT22;10008;48.682;9.016;2023-04-03T17:07:42;6.60;80.40
3406;DHT22;10008;48.682;9.016;2023-04-03T17:10:08;6.50;82.50
3406;DHT22;10008;48.682;9.016;2023-04-03T17:12:34;6.40;81.60
3406;DHT22;10008;48.682;9.016;2023-04-03T17:15:00;6.30;82.80
3406;DHT22;10008;48.682;9.016;2023-04-03T17:17:25;6.30;82.80
3406;DHT22;10008;48.682;9.016;2023-04-03T17:19:51;6.10;82.10
3406;DHT22;10008;48.682;9.016;2023-04-03T17:22:19;6.10;83.60
3406;DHT22;10008;48.682;9.016;2023-04-03T17:24:45;6.10;83.70
3406;DHT22;10008;48.682;9.016;2023-04-03T17:27:11;6.20;84.30
3406;DHT22;10008;48.682;9.016;2023-04-03T17:29:37;6.10;82.40
3406;DHT22;10008;48.682;9.016;2023-04-03T17:32:03;6.10;82.90
3406;DHT22;10008;48.682;9.016;2023-04-03T17:34:28;6.00;83.70
3406;DHT22;10008;48.682;9.016;2023-04-03T17:36:54;6.00;83.40
3406;DHT22;10008;48.682;9.016;2023-04-03T17:39:20;6.00;84.00
3406;DHT22;10008;48.682;9.016;2023-04-03T17:41:46;5.90;84.80